createdAt,value
2017-02-13T00:00:23.517Z,89.26
2017-02-13T00:01:24.226Z,89.45
2017-02-13T00:02:24.919Z,89.26
2017-02-13T00:03:25.637Z,89.36
2017-02-13T00:04:26.336Z,89.26
2017-02-13T00:05:27.044Z,89.64
2017-02-13T00:06:27.755Z,89.45
2017-02-13T00:07:28.439Z,89.36
2017-02-13T00:08:29.179Z,89.54
2017-02-13T00:09:29.906Z,89.73
2017-02-13T00:10:30.631Z,89.64
2017-02-13T00:11:31.325Z,89.26
2017-02-13T00:12:32.021Z,89.26
2017-02-13T00:13:32.727Z,89.36
2017-02-13T00:14:33.428Z,89.26
2017-02-13T00:15:34.175Z,89.36
2017-02-13T00:16:34.989Z,89.64
2017-02-13T00:17:35.714Z,89.26
2017-02-13T00:18:36.451Z,89.45
2017-02-13T00:19:37.175Z,89.36
2017-02-13T00:20:37.908Z,89.26
2017-02-13T00:21:38.631Z,89.26
2017-02-13T00:22:39.398Z,89.26
2017-02-13T00:23:40.123Z,89.54
2017-02-13T00:24:40.810Z,89.45
2017-02-13T00:25:41.497Z,89.4
2017-02-13T00:26:42.214Z,89.26
2017-02-13T00:27:42.901Z,89.45
2017-02-13T00:28:43.646Z,89.45
2017-02-13T00:29:44.377Z,89.07
2017-02-13T00:30:45.087Z,89.17
2017-02-13T00:31:45.788Z,88.79
2017-02-13T00:32:46.570Z,88.89
2017-02-13T00:33:47.286Z,88.79
2017-02-13T00:34:47.991Z,88.89
2017-02-13T00:35:48.689Z,88.7
2017-02-13T00:36:49.386Z,88.7
2017-02-13T00:37:50.153Z,88.89
2017-02-13T00:38:50.967Z,88.7
2017-02-13T00:39:51.703Z,88.79
2017-02-13T00:40:52.459Z,89.17
2017-02-13T00:41:53.141Z,88.89
2017-02-13T00:42:53.866Z,89.07
2017-02-13T00:43:54.564Z,88.7
2017-02-13T00:44:55.384Z,88.7
2017-02-13T00:45:56.091Z,88.42
2017-02-13T00:46:57.630Z,88.6
2017-02-13T00:47:58.470Z,88.6
2017-02-13T00:48:59.281Z,88.46
2017-02-13T00:50:00.040Z,88.79
2017-02-13T00:51:00.749Z,88.89
2017-02-13T00:52:01.467Z,88.7
2017-02-13T00:53:02.192Z,88.75
2017-02-13T00:54:02.952Z,88.65
2017-02-13T00:55:03.721Z,88.84
2017-02-13T00:56:04.421Z,89.12
2017-02-13T00:57:05.129Z,89.12
2017-02-13T00:58:05.894Z,89.31
2017-02-13T00:59:06.600Z,89.4
2017-02-13T01:00:07.314Z,89.4
2017-02-13T01:01:08.028Z,89.12
2017-02-13T01:02:08.733Z,89.69
2017-02-13T01:03:09.478Z,89.59
2017-02-13T01:04:10.282Z,89.78
2017-02-13T01:05:10.998Z,89.22
2017-02-13T01:06:11.681Z,89.31
2017-02-13T01:07:12.409Z,89.31
2017-02-13T01:08:13.195Z,89.78
2017-02-13T01:09:13.920Z,89.69
2017-02-13T01:10:14.645Z,89.5
2017-02-13T01:11:15.349Z,89.78
2017-02-13T01:12:16.073Z,89.78
2017-02-13T01:13:16.788Z,89.59
2017-02-13T01:14:17.546Z,89.69
2017-02-13T01:15:18.230Z,90.07
2017-02-13T01:16:18.937Z,89.88
2017-02-13T01:17:19.658Z,90.07
2017-02-13T01:18:20.357Z,89.97
2017-02-13T01:19:21.052Z,90.26
2017-02-13T01:20:21.753Z,90.64
2017-02-13T01:21:22.428Z,90.35
2017-02-13T01:22:23.138Z,90.73
2017-02-13T01:23:23.820Z,90.64
2017-02-13T01:24:24.538Z,90.73
2017-02-13T01:25:25.230Z,90.73
2017-02-13T01:26:25.931Z,90.73
2017-02-13T01:27:26.642Z,90.82
2017-02-13T01:28:27.356Z,90.73
2017-02-13T01:29:28.059Z,90.54
2017-02-13T01:30:28.780Z,90.64
2017-02-13T01:31:29.509Z,90.54
2017-02-13T01:32:30.345Z,90.54
2017-02-13T01:33:31.078Z,90.54
2017-02-13T01:34:31.821Z,90.35
2017-02-13T01:35:32.514Z,91.01
2017-02-13T01:36:33.215Z,90.54
2017-02-13T01:37:33.945Z,90.82
2017-02-13T01:38:34.752Z,91.11
2017-02-13T01:39:35.444Z,91.01
2017-02-13T01:40:36.145Z,90.82
2017-02-13T01:41:36.831Z,90.54
2017-02-13T01:42:37.559Z,90.73
2017-02-13T01:43:38.286Z,90.64
2017-02-13T01:44:38.962Z,90.82
2017-02-13T01:45:39.676Z,91.11
2017-02-13T01:46:40.402Z,90.82
2017-02-13T01:47:41.085Z,91.01
2017-02-13T01:48:41.784Z,91.11
2017-02-13T01:49:42.495Z,91.2
2017-02-13T01:50:43.226Z,91.2
2017-02-13T01:51:43.965Z,91.01
2017-02-13T01:52:44.634Z,90.82
2017-02-13T01:53:45.336Z,91.11
2017-02-13T01:54:46.039Z,91.01
2017-02-13T01:55:46.756Z,91.3
2017-02-13T01:56:47.457Z,91.58
2017-02-13T01:57:48.153Z,91.2
2017-02-13T01:58:48.838Z,91.2
2017-02-13T01:59:49.548Z,91.39
2017-02-13T02:00:50.251Z,91.01
2017-02-13T02:01:50.935Z,91.3
2017-02-13T02:02:51.627Z,91.11
2017-02-13T02:03:52.357Z,91.11
2017-02-13T02:04:53.257Z,91.3
2017-02-13T02:05:53.950Z,91.58
2017-02-13T02:06:54.643Z,91.11
2017-02-13T02:07:55.365Z,91.3
2017-02-13T02:08:56.078Z,91.3
2017-02-13T02:09:56.769Z,91.3
2017-02-13T02:10:57.477Z,91.3
2017-02-13T02:11:58.183Z,91.3
2017-02-13T02:12:58.921Z,91.11
2017-02-13T02:13:59.609Z,91.3
2017-02-13T02:15:00.378Z,91.3
2017-02-13T02:16:01.064Z,91.2
2017-02-13T02:17:01.854Z,91.3
2017-02-13T02:18:02.546Z,91.3
2017-02-13T02:19:03.287Z,91.3
2017-02-13T02:20:04.011Z,91.2
2017-02-13T02:21:04.722Z,91.3
2017-02-13T02:22:05.412Z,91.49
2017-02-13T02:23:06.146Z,91.11
2017-02-13T02:24:06.849Z,91.39
2017-02-13T02:25:07.551Z,91.3
2017-02-13T02:26:08.261Z,91.11
2017-02-13T02:27:08.974Z,91.39
2017-02-13T02:28:09.678Z,91.49
2017-02-13T02:29:10.383Z,91.11
2017-02-13T02:30:11.099Z,91.49
2017-02-13T02:31:11.815Z,91.58
2017-02-13T02:32:12.546Z,91.58
2017-02-13T02:33:13.268Z,91.39
2017-02-13T02:34:13.967Z,91.67
2017-02-13T02:35:14.630Z,92.24
2017-02-13T02:36:15.336Z,92.14
2017-02-13T02:37:16.035Z,92.14
2017-02-13T02:38:16.710Z,91.67
2017-02-13T02:39:17.440Z,91.58
2017-02-13T02:40:18.124Z,91.3
2017-02-13T02:41:18.842Z,91.49
2017-02-13T02:42:19.577Z,91.67
2017-02-13T02:43:20.294Z,91.58
2017-02-13T02:44:21.012Z,91.3
2017-02-13T02:45:21.775Z,91.49
2017-02-13T02:46:22.465Z,91.67
2017-02-13T02:47:23.161Z,91.3
2017-02-13T02:48:23.888Z,91.67
2017-02-13T02:49:24.587Z,92.14
2017-02-13T02:50:25.333Z,92.14
2017-02-13T02:51:26.038Z,92.14
2017-02-13T02:52:26.735Z,91.3
2017-02-13T02:53:27.435Z,91.3
2017-02-13T02:54:28.125Z,91.67
2017-02-13T02:55:28.813Z,91.3
2017-02-13T02:56:29.519Z,92.33
2017-02-13T02:57:30.219Z,91.67
2017-02-13T02:58:30.965Z,91.67
2017-02-13T02:59:31.675Z,92.24
2017-02-13T03:00:32.381Z,92.14
2017-02-13T03:01:33.102Z,92.14
2017-02-13T03:02:33.805Z,92.14
2017-02-13T03:03:34.507Z,92.05
2017-02-13T03:04:35.220Z,92.14
2017-02-13T03:05:35.929Z,92.33
2017-02-13T03:06:36.616Z,91.67
2017-02-13T03:07:37.323Z,91.58
2017-02-13T03:08:38.029Z,91.67
2017-02-13T03:09:38.741Z,91.49
2017-02-13T03:10:39.447Z,91.67
2017-02-13T03:11:40.134Z,91.67
2017-02-13T03:12:40.840Z,91.67
2017-02-13T03:13:41.546Z,91.67
2017-02-13T03:14:42.237Z,91.67
2017-02-13T03:15:42.957Z,92.05
2017-02-13T03:16:43.664Z,92.05
2017-02-13T03:17:44.402Z,92.14
2017-02-13T03:18:45.142Z,92.05
2017-02-13T03:19:45.857Z,92.05
2017-02-13T03:20:46.550Z,92.24
2017-02-13T03:21:47.254Z,92.24
2017-02-13T03:22:47.970Z,91.49
2017-02-13T03:23:48.678Z,91.49
2017-02-13T03:24:49.391Z,91.49
2017-02-13T03:25:50.087Z,91.2
2017-02-13T03:26:50.786Z,91.3
2017-02-13T03:27:51.481Z,91.3
2017-02-13T03:28:52.184Z,91.58
2017-02-13T03:29:52.904Z,91.67
2017-02-13T03:30:53.634Z,91.58
2017-02-13T03:31:54.313Z,91.49
2017-02-13T03:32:55.049Z,91.3
2017-02-13T03:33:55.739Z,91.67
2017-02-13T03:34:56.445Z,91.67
2017-02-13T03:35:57.146Z,91.49
2017-02-13T03:36:57.820Z,91.11
2017-02-13T03:37:58.494Z,91.2
2017-02-13T03:38:59.283Z,91.58
2017-02-13T03:39:59.990Z,91.2
2017-02-13T03:41:00.682Z,91.3
2017-02-13T03:42:01.405Z,91.11
2017-02-13T03:43:02.129Z,91.01
2017-02-13T03:44:02.804Z,91.11
2017-02-13T03:45:03.506Z,90.92
2017-02-13T03:46:04.214Z,90.54
2017-02-13T03:47:04.953Z,90.73
2017-02-13T03:48:05.663Z,90.54
2017-02-13T03:49:06.371Z,90.54
2017-02-13T03:50:07.098Z,90.35
2017-02-13T03:51:07.810Z,90.54
2017-02-13T03:52:08.522Z,90.64
2017-02-13T03:53:09.216Z,90.64
2017-02-13T03:54:09.921Z,90.73
2017-02-13T03:55:10.579Z,90.82
2017-02-13T03:56:11.284Z,89.69
2017-02-13T03:57:12.064Z,89.78
2017-02-13T03:58:12.749Z,89.97
2017-02-13T03:59:13.536Z,91.01
2017-02-13T04:00:14.215Z,90.26
2017-02-13T04:01:14.942Z,90.16
2017-02-13T04:02:15.646Z,90.16
2017-02-13T04:03:16.353Z,90.16
2017-02-13T04:04:17.372Z,90.26
2017-02-13T04:05:18.054Z,90.26
2017-02-13T04:06:18.856Z,89.97
2017-02-13T04:07:19.552Z,89.59
2017-02-13T04:08:20.254Z,90.07
2017-02-13T04:09:20.942Z,89.69
2017-02-13T04:10:21.666Z,89.78
2017-02-13T04:11:22.384Z,90.16
2017-02-13T04:12:23.101Z,90.16
2017-02-13T04:13:23.816Z,89.78
2017-02-13T04:14:24.519Z,89.97
2017-02-13T04:15:25.225Z,89.5
2017-02-13T04:16:25.933Z,89.69
2017-02-13T04:17:26.614Z,89.69
2017-02-13T04:18:27.314Z,89.78
2017-02-13T04:19:28.005Z,89.69
2017-02-13T04:20:28.731Z,90.07
2017-02-13T04:21:29.431Z,89.97
2017-02-13T04:22:30.196Z,89.59
2017-02-13T04:23:30.902Z,89.78
2017-02-13T04:24:31.603Z,89.5
2017-02-13T04:25:32.295Z,89.78
2017-02-13T04:26:32.979Z,89.59
2017-02-13T04:27:33.680Z,89.69
2017-02-13T04:28:34.385Z,89.78
2017-02-13T04:29:35.090Z,89.78
2017-02-13T04:30:35.777Z,90.07
2017-02-13T04:31:36.471Z,89.97
2017-02-13T04:32:37.180Z,89.69
2017-02-13T04:33:37.897Z,89.88
2017-02-13T04:34:38.596Z,89.59
2017-02-13T04:35:39.293Z,90.16
2017-02-13T04:36:40.001Z,89.78
2017-02-13T04:37:40.688Z,89.97
2017-02-13T04:38:41.397Z,90.16
2017-02-13T04:39:42.086Z,90.16
2017-02-13T04:40:42.806Z,90.16
2017-02-13T04:41:43.509Z,89.97
2017-02-13T04:42:44.206Z,89.97
2017-02-13T04:43:44.927Z,90.07
2017-02-13T04:44:45.679Z,90.26
2017-02-13T04:45:46.373Z,89.97
2017-02-13T04:46:47.086Z,90.16
2017-02-13T04:47:47.821Z,90.07
2017-02-13T04:48:48.546Z,89.88
2017-02-13T04:49:49.246Z,90.26
2017-02-13T04:50:49.931Z,90.26
2017-02-13T04:51:50.615Z,90.16
2017-02-13T04:52:51.323Z,90.16
2017-02-13T04:53:52.035Z,89.78
2017-02-13T04:54:52.729Z,89.78
2017-02-13T04:55:53.406Z,89.5
2017-02-13T04:56:54.095Z,90.16
2017-02-13T04:57:54.813Z,90.16
2017-02-13T04:58:55.513Z,90.07
2017-02-13T04:59:56.211Z,89.97
2017-02-13T05:00:56.911Z,89.97
2017-02-13T05:01:57.609Z,89.5
2017-02-13T05:02:58.300Z,89.59
2017-02-13T05:03:58.986Z,89.69
2017-02-13T05:04:59.694Z,89.31
2017-02-13T05:06:00.412Z,89.59
2017-02-13T05:07:01.094Z,89.31
2017-02-13T05:08:01.795Z,89.59
2017-02-13T05:09:02.515Z,89.59
2017-02-13T05:10:03.234Z,89.59
2017-02-13T05:11:03.909Z,89.5
2017-02-13T05:12:04.615Z,89.59
2017-02-13T05:13:05.306Z,89.4
2017-02-13T05:14:06.004Z,89.5
2017-02-13T05:15:06.696Z,89.5
2017-02-13T05:16:07.398Z,89.4
2017-02-13T05:17:08.129Z,89.4
2017-02-13T05:18:08.827Z,89.31
2017-02-13T05:19:09.518Z,89.12
2017-02-13T05:20:10.845Z,89.5
2017-02-13T05:21:11.840Z,89.5
2017-02-13T05:22:12.532Z,89.4
2017-02-13T05:23:13.254Z,89.5
2017-02-13T05:24:13.957Z,89.78
2017-02-13T05:25:14.682Z,89.59
2017-02-13T05:26:15.405Z,89.59
2017-02-13T05:27:16.095Z,89.69
2017-02-13T05:28:16.798Z,89.78
2017-02-13T05:29:17.491Z,90.16
2017-02-13T05:30:18.196Z,89.5
2017-02-13T05:31:18.866Z,89.78
2017-02-13T05:32:19.553Z,89.69
2017-02-13T05:33:20.272Z,89.78
2017-02-13T05:34:20.968Z,89.59
2017-02-13T05:35:21.677Z,89.88
2017-02-13T05:36:22.379Z,89.78
2017-02-13T05:37:23.129Z,89.59
2017-02-13T05:38:23.824Z,89.5
2017-02-13T05:39:24.518Z,89.31
2017-02-13T05:40:25.205Z,89.4
2017-02-13T05:41:25.912Z,89.22
2017-02-13T05:42:26.615Z,89.12
2017-02-13T05:43:27.305Z,89.4
2017-02-13T05:44:28.008Z,89.22
2017-02-13T05:45:28.691Z,89.22
2017-02-13T05:46:29.397Z,89.31
2017-02-13T05:47:30.100Z,89.59
2017-02-13T05:48:30.803Z,89.78
2017-02-13T05:49:31.515Z,89.83
2017-02-13T05:50:32.206Z,89.78
2017-02-13T05:51:32.872Z,89.5
2017-02-13T05:52:33.577Z,89.83
2017-02-13T05:53:34.270Z,90.12
2017-02-13T05:54:34.966Z,90.16
2017-02-13T05:55:35.669Z,89.88
2017-02-13T05:56:36.370Z,90.16
2017-02-13T05:57:37.067Z,89.97
2017-02-13T05:58:37.771Z,90.12
2017-02-13T05:59:38.462Z,89.93
2017-02-13T06:00:39.169Z,90.26
2017-02-13T06:01:39.906Z,90.21
2017-02-13T06:02:40.629Z,90.31
2017-02-13T06:03:41.351Z,90.16
2017-02-13T06:04:42.048Z,90.16
2017-02-13T06:05:42.739Z,89.78
2017-02-13T06:06:43.443Z,89.93
2017-02-13T06:07:44.128Z,89.97
2017-02-13T06:08:44.836Z,90.07
2017-02-13T06:09:45.526Z,89.5
2017-02-13T06:10:46.221Z,89.31
2017-02-13T06:11:47.008Z,89.27
2017-02-13T06:12:47.717Z,89.69
2017-02-13T06:13:48.419Z,89.45
2017-02-13T06:14:49.127Z,89.74
2017-02-13T06:15:49.818Z,89.27
2017-02-13T06:16:50.525Z,89.74
2017-02-13T06:17:51.193Z,89.83
2017-02-13T06:18:51.884Z,90.21
2017-02-13T06:19:52.592Z,89.93
2017-02-13T06:20:53.274Z,90.02
2017-02-13T06:21:54.043Z,90.21
2017-02-13T06:22:54.756Z,90.4
2017-02-13T06:23:55.532Z,90.21
2017-02-13T06:24:56.217Z,90.31
2017-02-13T06:25:57.239Z,89.74
2017-02-13T06:26:57.919Z,90.12
2017-02-13T06:27:58.614Z,90.5
2017-02-13T06:28:59.312Z,90.59
2017-02-13T06:30:00.060Z,90.68
2017-02-13T06:31:00.742Z,90.68
2017-02-13T06:32:01.411Z,90.59
2017-02-13T06:33:02.089Z,90.78
2017-02-13T06:34:02.766Z,90.02
2017-02-13T06:35:03.432Z,90.12
2017-02-13T06:36:04.102Z,90.21
2017-02-13T06:37:04.812Z,90.4
2017-02-13T06:38:05.520Z,90.21
2017-02-13T06:39:06.222Z,90.4
2017-02-13T06:40:06.932Z,90.21
2017-02-13T06:41:07.639Z,90.21
2017-02-13T06:42:08.373Z,90.21
2017-02-13T06:43:09.055Z,89.83
2017-02-13T06:44:09.755Z,89.64
2017-02-13T06:45:10.449Z,89.83
2017-02-13T06:46:11.145Z,91.06
2017-02-13T06:47:11.833Z,90.12
2017-02-13T06:48:12.587Z,90.12
2017-02-13T06:49:13.298Z,90.4
2017-02-13T06:50:13.985Z,89.83
2017-02-13T06:51:14.682Z,90.02
2017-02-13T06:52:15.370Z,89.93
2017-02-13T06:53:16.075Z,90.21
2017-02-13T06:54:16.786Z,89.74
2017-02-13T06:55:17.508Z,89.64
2017-02-13T06:56:18.192Z,89.83
2017-02-13T06:57:18.921Z,90.02
2017-02-13T06:58:19.642Z,90.5
2017-02-13T06:59:20.342Z,91.06
2017-02-13T07:00:21.043Z,90.78
2017-02-13T07:01:21.739Z,90.87
2017-02-13T07:02:22.411Z,89.93
2017-02-13T07:03:23.093Z,90.02
2017-02-13T07:04:23.813Z,89.55
2017-02-13T07:05:24.534Z,89.64
2017-02-13T07:06:25.233Z,89.74
2017-02-13T07:07:25.937Z,89.93
2017-02-13T07:08:26.625Z,89.55
2017-02-13T07:09:27.322Z,89.74
2017-02-13T07:10:28.010Z,90.12
2017-02-13T07:11:28.735Z,89.83
2017-02-13T07:12:29.463Z,89.83
2017-02-13T07:13:30.168Z,89.55
2017-02-13T07:14:30.896Z,89.93
2017-02-13T07:15:31.594Z,90.02
2017-02-13T07:16:32.298Z,90.12
2017-02-13T07:17:32.991Z,89.93
2017-02-13T07:18:33.681Z,89.74
2017-02-13T07:19:34.386Z,89.93
2017-02-13T07:20:35.120Z,89.74
2017-02-13T07:21:35.803Z,89.74
2017-02-13T07:22:36.476Z,89.83
2017-02-13T07:23:37.198Z,89.45
2017-02-13T07:24:37.904Z,89.74
2017-02-13T07:25:38.601Z,89.55
2017-02-13T07:26:39.299Z,89.64
2017-02-13T07:27:39.991Z,89.64
2017-02-13T07:28:40.686Z,89.45
2017-02-13T07:29:41.396Z,89.74
2017-02-13T07:30:42.077Z,89.17
2017-02-13T07:31:42.796Z,89.45
2017-02-13T07:32:43.497Z,89.64
2017-02-13T07:33:44.199Z,89.27
2017-02-13T07:34:44.918Z,90.4
2017-02-13T07:35:45.635Z,90.78
2017-02-13T07:36:46.347Z,90.12
2017-02-13T07:37:47.038Z,89.74
2017-02-13T07:38:47.762Z,89.22
2017-02-13T07:39:48.482Z,89.36
2017-02-13T07:40:49.191Z,89.45
2017-02-13T07:41:49.884Z,89.27
2017-02-13T07:42:50.585Z,88.42
2017-02-13T07:43:51.292Z,89.69
2017-02-13T07:44:52.082Z,89.27
2017-02-13T07:45:52.753Z,89.03
2017-02-13T07:46:53.482Z,88.98
2017-02-13T07:47:54.180Z,88.65
2017-02-13T07:48:54.919Z,88.75
2017-02-13T07:49:55.615Z,88.37
2017-02-13T07:50:56.340Z,88.37
2017-02-13T07:51:57.090Z,88.56
2017-02-13T07:52:57.797Z,88.51
2017-02-13T07:53:58.510Z,88.56
2017-02-13T07:54:59.217Z,88.75
2017-02-13T07:55:59.925Z,88.84
2017-02-13T07:57:00.614Z,88.46
2017-02-13T07:58:01.364Z,88.56
2017-02-13T07:59:02.045Z,88.75
2017-02-13T08:00:02.755Z,87.9
2017-02-13T08:01:03.452Z,87.33
2017-02-13T08:02:04.170Z,87.33
2017-02-13T08:03:04.866Z,87.33
2017-02-13T08:04:05.562Z,87.52
2017-02-13T08:05:06.235Z,87.52
2017-02-13T08:06:06.956Z,87.14
2017-02-13T08:07:07.646Z,86.95
2017-02-13T08:08:08.351Z,87.14
2017-02-13T08:09:09.054Z,86.76
2017-02-13T08:10:09.756Z,87.14
2017-02-13T08:11:10.451Z,87.05
2017-02-13T08:12:11.146Z,86.86
2017-02-13T08:13:11.868Z,87.05
2017-02-13T08:14:12.563Z,87.24
2017-02-13T08:15:13.260Z,86.76
2017-02-13T08:16:13.972Z,87.24
2017-02-13T08:17:14.689Z,87.33
2017-02-13T08:18:15.398Z,86.76
2017-02-13T08:19:16.116Z,86.67
2017-02-13T08:20:16.850Z,86.76
2017-02-13T08:21:17.635Z,86.76
2017-02-13T08:22:18.408Z,86.67
2017-02-13T08:23:19.089Z,86.38
2017-02-13T08:24:19.800Z,86.67
2017-02-13T08:25:20.493Z,86.38
2017-02-13T08:26:21.204Z,86.19
2017-02-13T08:27:21.921Z,86.19
2017-02-13T08:28:22.776Z,85.72
2017-02-13T08:29:23.584Z,86.1
2017-02-13T08:30:24.318Z,86.01
2017-02-13T08:31:25.028Z,86.29
2017-02-13T08:32:25.717Z,86.48
2017-02-13T08:33:26.408Z,85.82
2017-02-13T08:34:27.104Z,86.01
2017-02-13T08:35:27.835Z,85.82
2017-02-13T08:36:28.546Z,85.82
2017-02-13T08:37:29.271Z,85.44
2017-02-13T08:38:29.999Z,85.53
2017-02-13T08:39:30.682Z,85.06
2017-02-13T08:40:31.433Z,85.35
2017-02-13T08:41:32.181Z,85.53
2017-02-13T08:42:33.124Z,85.53
2017-02-13T08:43:33.833Z,85.53
2017-02-13T08:44:34.548Z,84.59
2017-02-13T08:45:35.274Z,84.78
2017-02-13T08:46:35.996Z,84.41
2017-02-13T08:47:36.699Z,85.16
2017-02-13T08:48:37.442Z,84.59
2017-02-13T08:49:38.163Z,84.78
2017-02-13T08:50:38.869Z,84.97
2017-02-13T08:51:39.592Z,84.97
2017-02-13T08:52:40.295Z,84.59
2017-02-13T08:53:41.001Z,84.54
2017-02-13T08:54:41.710Z,84.31
2017-02-13T08:55:42.428Z,84.82
2017-02-13T08:56:43.145Z,84.45
2017-02-13T08:57:43.861Z,84.64
2017-02-13T08:58:44.763Z,84.07
2017-02-13T08:59:45.476Z,84.07
2017-02-13T09:00:46.177Z,84.22
2017-02-13T09:01:46.870Z,84.73
2017-02-13T09:02:47.564Z,84.64
2017-02-13T09:03:48.290Z,84.07
2017-02-13T09:04:49.018Z,83.69
2017-02-13T09:05:49.716Z,83.5
2017-02-13T09:06:50.418Z,82.84
2017-02-13T09:07:51.133Z,82.37
2017-02-13T09:08:51.850Z,82.18
2017-02-13T09:09:52.576Z,81.9
2017-02-13T09:10:53.312Z,81.99
2017-02-13T09:11:54.055Z,81.99
2017-02-13T09:12:54.760Z,81.71
2017-02-13T09:13:55.462Z,81.9
2017-02-13T09:14:56.174Z,82.28
2017-02-13T09:15:56.895Z,82.84
2017-02-13T09:16:57.604Z,83.22
2017-02-13T09:17:58.315Z,83.22
2017-02-13T09:18:59.007Z,83.69
2017-02-13T09:19:59.735Z,84.07
2017-02-13T09:21:00.447Z,84.54
2017-02-13T09:22:01.133Z,84.82
2017-02-13T09:23:01.865Z,84.26
2017-02-13T09:24:02.567Z,84.26
2017-02-13T09:25:03.271Z,84.35
2017-02-13T09:26:03.973Z,84.35
2017-02-13T09:27:04.695Z,84.73
2017-02-13T09:28:05.424Z,85.11
2017-02-13T09:29:06.137Z,84.82
2017-02-13T09:30:06.820Z,84.64
2017-02-13T09:31:07.538Z,84.54
2017-02-13T09:32:08.252Z,84.73
2017-02-13T09:33:08.978Z,84.73
2017-02-13T09:34:09.706Z,84.82
2017-02-13T09:35:10.430Z,85.49
2017-02-13T09:36:11.131Z,85.01
2017-02-13T09:37:11.841Z,84.82
2017-02-13T09:38:12.582Z,84.73
2017-02-13T09:39:13.307Z,84.26
2017-02-13T09:40:14.008Z,84.35
2017-02-13T09:41:14.717Z,84.07
2017-02-13T09:42:15.423Z,84.07
2017-02-13T09:43:16.125Z,84.07
2017-02-13T09:44:16.829Z,83.97
2017-02-13T09:45:17.531Z,83.97
2017-02-13T09:46:18.272Z,84.35
2017-02-13T09:47:18.978Z,84.64
2017-02-13T09:48:19.684Z,83.97
2017-02-13T09:49:20.413Z,84.45
2017-02-13T09:50:21.138Z,83.78
2017-02-13T09:51:21.878Z,84.64
2017-02-13T09:52:22.592Z,84.45
2017-02-13T09:53:23.324Z,84.45
2017-02-13T09:54:24.021Z,84.35
2017-02-13T09:55:24.739Z,84.16
2017-02-13T09:56:25.461Z,84.54
2017-02-13T09:57:26.191Z,84.35
2017-02-13T09:58:26.885Z,84.16
2017-02-13T09:59:27.602Z,84.16
2017-02-13T10:00:28.348Z,83.69
2017-02-13T10:01:29.039Z,83.4
2017-02-13T10:02:29.793Z,83.4
2017-02-13T10:03:30.484Z,83.5
2017-02-13T10:04:31.184Z,83.59
2017-02-13T10:05:31.884Z,83.59
2017-02-13T10:06:32.600Z,83.5
2017-02-13T10:07:33.334Z,82.98
2017-02-13T10:08:34.000Z,83.26
2017-02-13T10:09:34.726Z,83.22
2017-02-13T10:10:35.431Z,83.03
2017-02-13T10:11:36.124Z,83.54
2017-02-13T10:12:36.844Z,83.64
2017-02-13T10:13:37.545Z,82.98
2017-02-13T10:14:38.272Z,83.17
2017-02-13T10:15:38.990Z,82.88
2017-02-13T10:16:39.737Z,82.88
2017-02-13T10:17:40.452Z,83.07
2017-02-13T10:18:41.267Z,82.5
2017-02-13T10:19:41.995Z,82.5
2017-02-13T10:20:42.750Z,82.5
2017-02-13T10:21:43.481Z,82.6
2017-02-13T10:22:44.172Z,82.6
2017-02-13T10:23:44.869Z,82.31
2017-02-13T10:24:45.589Z,81.93
2017-02-13T10:25:46.278Z,81.84
2017-02-13T10:26:46.990Z,81.84
2017-02-13T10:27:47.694Z,81.84
2017-02-13T10:28:48.415Z,81.37
2017-02-13T10:29:49.145Z,81.56
2017-02-13T10:30:49.853Z,81.37
2017-02-13T10:31:50.528Z,81.74
2017-02-13T10:32:51.277Z,82.03
2017-02-13T10:33:51.965Z,82.03
2017-02-13T10:34:52.676Z,82.03
2017-02-13T10:35:53.430Z,82.03
2017-02-13T10:36:54.182Z,81.84
2017-02-13T10:37:54.881Z,82.03
2017-02-13T10:38:55.598Z,81.74
2017-02-13T10:39:56.301Z,81.56
2017-02-13T10:40:57.026Z,81.56
2017-02-13T10:41:57.717Z,81.74
2017-02-13T10:42:58.421Z,80.99
2017-02-13T10:43:59.111Z,80.99
2017-02-13T10:44:59.807Z,80.99
2017-02-13T10:46:00.533Z,80.99
2017-02-13T10:47:01.254Z,81.09
2017-02-13T10:48:01.939Z,80.9
2017-02-13T10:49:02.691Z,80.8
2017-02-13T10:50:03.419Z,81.18
2017-02-13T10:51:04.127Z,81.09
2017-02-13T10:52:04.831Z,80.94
2017-02-13T10:53:05.539Z,80.75
2017-02-13T10:54:06.262Z,80.65
2017-02-13T10:55:07.006Z,80.75
2017-02-13T10:56:07.764Z,80.56
2017-02-13T10:57:08.480Z,80.84
2017-02-13T10:58:09.179Z,80.56
2017-02-13T10:59:09.879Z,80.75
2017-02-13T11:00:10.588Z,80.08
2017-02-13T11:01:11.305Z,79.99
2017-02-13T11:02:12.027Z,80.37
2017-02-13T11:03:12.763Z,80.08
2017-02-13T11:04:13.556Z,79.99
2017-02-13T11:05:14.274Z,80.37
2017-02-13T11:06:14.999Z,79.9
2017-02-13T11:07:15.721Z,80.37
2017-02-13T11:08:16.431Z,80.18
2017-02-13T11:09:17.152Z,80.37
2017-02-13T11:10:17.885Z,80.65
2017-02-13T11:11:18.600Z,80.18
2017-02-13T11:12:19.352Z,80.18
2017-02-13T11:13:20.098Z,79.99
2017-02-13T11:14:20.794Z,79.61
2017-02-13T11:15:21.508Z,79.99
2017-02-13T11:16:22.218Z,79.61
2017-02-13T11:17:22.923Z,79.24
2017-02-13T11:18:23.633Z,79.24
2017-02-13T11:19:24.376Z,79.33
2017-02-13T11:20:25.090Z,78.95
2017-02-13T11:21:25.807Z,78.86
2017-02-13T11:22:26.528Z,78.86
2017-02-13T11:23:27.285Z,78.86
2017-02-13T11:24:27.999Z,78.42
2017-02-13T11:25:28.753Z,78.67
2017-02-13T11:26:29.472Z,78.8
2017-02-13T11:27:30.181Z,78.42
2017-02-13T11:28:30.896Z,78.23
2017-02-13T11:29:31.626Z,78.33
2017-02-13T11:30:32.344Z,78.14
2017-02-13T11:31:33.066Z,78.33
2017-02-13T11:32:33.785Z,78.8
2017-02-13T11:33:34.508Z,78.42
2017-02-13T11:34:35.224Z,78.42
2017-02-13T11:35:35.952Z,78.61
2017-02-13T11:36:36.769Z,77.58
2017-02-13T11:37:37.561Z,77.86
2017-02-13T11:38:38.295Z,77.39
2017-02-13T11:39:39.010Z,77.76
2017-02-13T11:40:39.706Z,77.76
2017-02-13T11:41:40.404Z,77.67
2017-02-13T11:42:41.106Z,77.48
2017-02-13T11:43:41.823Z,77.67
2017-02-13T11:44:42.550Z,77.39
2017-02-13T11:45:43.308Z,77.58
2017-02-13T11:46:44.043Z,77.67
2017-02-13T11:47:44.745Z,77.2
2017-02-13T11:48:45.499Z,77.2
2017-02-13T11:49:46.243Z,77.1
2017-02-13T11:50:46.933Z,77.29
2017-02-13T11:51:47.666Z,77.39
2017-02-13T11:52:48.360Z,76.53
2017-02-13T11:53:49.070Z,76.91
2017-02-13T11:54:49.781Z,77.2
2017-02-13T11:55:50.502Z,77.29
2017-02-13T11:56:51.235Z,77.39
2017-02-13T11:57:51.922Z,77.39
2017-02-13T11:58:52.631Z,77.29
2017-02-13T11:59:53.346Z,76.82
2017-02-13T12:00:54.068Z,76.82
2017-02-13T12:01:54.783Z,76.34
2017-02-13T12:02:55.479Z,76.25
2017-02-13T12:03:56.180Z,76.63
2017-02-13T12:04:56.908Z,76.15
2017-02-13T12:05:57.607Z,76.1
2017-02-13T12:06:58.310Z,75.96
2017-02-13T12:07:59.038Z,76.29
2017-02-13T12:08:59.734Z,76
2017-02-13T12:10:00.445Z,75.62
2017-02-13T12:11:01.165Z,75.81
2017-02-13T12:12:01.885Z,75.81
2017-02-13T12:13:02.589Z,75.53
2017-02-13T12:14:03.290Z,75.62
2017-02-13T12:15:04.010Z,75.24
2017-02-13T12:16:04.753Z,75.62
2017-02-13T12:17:05.474Z,74.87
2017-02-13T12:18:06.215Z,74.77
2017-02-13T12:19:06.911Z,75.05
2017-02-13T12:20:07.617Z,75.15
2017-02-13T12:21:08.310Z,75.24
2017-02-13T12:22:09.011Z,75.24
2017-02-13T12:23:09.709Z,74.77
2017-02-13T12:24:10.420Z,74.87
2017-02-13T12:25:11.135Z,74.96
2017-02-13T12:26:11.868Z,74.96
2017-02-13T12:27:12.624Z,74.77
2017-02-13T12:28:13.317Z,74.96
2017-02-13T12:29:14.017Z,74.68
2017-02-13T12:30:14.725Z,74.4
2017-02-13T12:31:15.434Z,75.15
2017-02-13T12:32:16.150Z,74.77
2017-02-13T12:33:16.984Z,74.87
2017-02-13T12:34:17.654Z,74.58
2017-02-13T12:35:18.389Z,74.49
2017-02-13T12:36:19.109Z,74.49
2017-02-13T12:37:19.801Z,74.4
2017-02-13T12:38:20.512Z,74.21
2017-02-13T12:39:21.267Z,74.4
2017-02-13T12:40:22.022Z,74.58
2017-02-13T12:41:22.752Z,74.3
2017-02-13T12:42:23.443Z,74.49
2017-02-13T12:43:24.143Z,74.49
2017-02-13T12:44:24.863Z,74.4
2017-02-13T12:45:31.450Z,74.96
2017-02-13T12:46:26.408Z,74.58
2017-02-13T12:47:27.085Z,74.02
2017-02-13T12:48:27.793Z,74.11
2017-02-13T12:49:28.512Z,74.21
2017-02-13T12:50:29.204Z,73.64
2017-02-13T12:51:29.947Z,73.83
2017-02-13T12:52:30.654Z,73.64
2017-02-13T12:53:31.374Z,73.64
2017-02-13T12:54:32.086Z,73.54
2017-02-13T12:55:32.824Z,73.83
2017-02-13T12:56:33.522Z,73.73
2017-02-13T12:57:34.237Z,73.83
2017-02-13T12:58:34.971Z,73.92
2017-02-13T12:59:35.694Z,73.35
2017-02-13T13:00:36.422Z,73.26
2017-02-13T13:01:37.142Z,73.35
2017-02-13T13:02:37.847Z,73.26
2017-02-13T13:03:38.557Z,73.07
2017-02-13T13:04:39.334Z,73.16
2017-02-13T13:05:40.098Z,73.58